メインページ
METAR-TAF:

METAR-TAF

空港 :

フォール=ド=フランス, マルティニーク

マルティニーク・エメ・セゼール国際空港

緯度: 14-36N, 経度: 061-00W, 海抜: 5m

現時点の気象観測

当レポートは11分前の19:30(UTC)に作成
東/南東の風 12kt
気温 29°C
湿度 62%
気圧 1012 hPa
視程10km以上
高度3100ftの雲はほとんどない
高度4500ftの千切れ雲あり
高度8400ftの曇り

METAR: TFFF 251930Z AUTO 11012KT 9999 FEW031 BKN045 OVC084 29/21 Q1012 TEMPO 4000 SHRA BKN018TCU

時間: 15:41 (19:41 UTC)

予報

当レポートは2時間41分前の17:00(UTC)に作成
予報は25日の 18時(UTC)から 26日の 18時(UTC)まで有効
東/南東の風 8kt
視程10km以上
高度2600ftの雲は散在している
高度6000ftの千切れ雲あり
確率 30% :
25日の 18時(UTC)から 25日の 24時(UTC)まで一時的に
視程: 4000m
高度1800ftの千切れ雲あり, 塔状積雲.
にわか雨
26日の 14時(UTC)から 26日の 18時(UTC)まで一時的に
視程: 3000m
高度1800ftの千切れ雲あり, 塔状積雲.
にわか雨

TAF: TFFF 251700Z 2518/2618 12008KT 9999 SCT026 BKN060 PROB30 TEMPO 2518/2524 4000 SHRA BKN018TCU TEMPO 2614/2618 3000 SHRA BKN018TCU

4,000以上の空港の気象観測と天気予報(METAR報とTAF報)

利用可能な観測所は地図上に黄色い丸と赤い丸で示す。

丸の上にカーソルを重ねると観測所名を参照できる。

次にクリックすると気象観測と天気予報を参照できる。

マップの切り替え:黒色「×」印の緑ボタンをクリックして拡大、「-」印の緑ボタンをクリックして縮小、緑色の三角印をクリックして隣りの地図に切り替え


METAR-TAF: